Time;durP1;ratioP1;P1;durP2;ratioP2;P2;SDS_P1;SDS_P2;PMS_P1;PMS_P2;Temp;Humidity;BMP_temperature;BMP_pressure;BME280_temperature;BME280_humidity;BME280_pressure;Samples;Min_cycle;Max_cycle;Signal;HPM_P1;HPM_P2
2022/11/02 00:01:48;;;;;;;10.55;2.47;;;11.50;99.90;;;;;;4943328;28;20038;-73
2022/11/02 00:04:14;;;;;;;10.57;2.13;;;11.50;99.90;;;;;;4931569;28;20197;-72
2022/11/02 00:06:40;;;;;;;11.00;1.90;;;11.40;99.90;;;;;;4960788;28;20058;-73
2022/11/02 00:09:06;;;;;;;13.63;1.88;;;11.40;99.90;;;;;;4960667;28;20035;-73
2022/11/02 00:11:32;;;;;;;11.82;2.35;;;11.40;99.90;;;;;;4960787;28;20492;-73
2022/11/02 00:13:58;;;;;;;8.55;2.25;;;11.40;99.90;;;;;;4943382;28;20027;-73
2022/11/02 00:16:24;;;;;;;12.98;2.33;;;11.40;99.90;;;;;;4960493;28;20412;-73
2022/11/02 00:18:54;;;;;;;11.75;2.58;;;11.30;99.90;;;;;;4960566;28;20055;-73
2022/11/02 00:21:21;;;;;;;9.85;2.13;;;11.30;99.90;;;;;;4960754;28;20035;-73
2022/11/02 00:23:48;;;;;;;11.27;2.08;;;11.30;99.90;;;;;;4960723;28;20480;-73
2022/11/02 00:26:14;;;;;;;11.27;2.03;;;11.30;99.90;;;;;;4960681;28;20034;-73
2022/11/02 00:28:41;;;;;;;11.63;2.28;;;11.20;99.90;;;;;;4942525;28;20037;-73
2022/11/02 00:31:06;;;;;;;14.93;2.70;;;11.20;99.90;;;;;;4959864;28;20027;-73
2022/11/02 00:33:32;;;;;;;13.48;2.40;;;11.20;99.90;;;;;;4960306;28;20029;-73
2022/11/02 00:35:58;;;;;;;10.02;1.92;;;11.20;99.90;;;;;;4960709;28;20023;-73
2022/11/02 00:38:23;;;;;;;10.15;1.90;;;11.20;99.90;;;;;;4962654;28;20027;-73
2022/11/02 00:40:49;;;;;;;9.90;1.98;;;11.20;99.90;;;;;;4943056;29;20488;-73
2022/11/02 00:43:15;;;;;;;11.82;2.30;;;11.20;99.90;;;;;;4959879;28;20069;-73
2022/11/02 00:45:40;;;;;;;13.60;2.58;;;11.10;99.90;;;;;;4959622;28;20090;-73
2022/11/02 00:48:06;;;;;;;11.55;2.50;;;11.10;99.90;;;;;;4942592;28;20062;-73
2022/11/02 00:50:31;;;;;;;14.63;2.25;;;11.10;99.90;;;;;;4960103;28;20063;-73
2022/11/02 00:52:57;;;;;;;12.98;1.90;;;11.10;99.90;;;;;;4959862;28;20043;-73
2022/11/02 00:55:23;;;;;;;9.57;2.25;;;11.10;99.90;;;;;;4960192;28;20035;-73
2022/11/02 00:57:48;;;;;;;10.85;1.75;;;11.10;99.90;;;;;;4959869;28;20027;-73
2022/11/02 01:00:15;;;;;;;11.00;2.17;;;11.10;99.90;;;;;;4959798;28;20050;-72
2022/11/02 01:02:41;;;;;;;8.65;1.85;;;11.10;99.90;;;;;;4942386;28;20039;-73
2022/11/02 01:05:08;;;;;;;11.93;2.10;;;11.10;99.90;;;;;;4959700;28;20050;-73
2022/11/02 01:07:34;;;;;;;14.68;2.10;;;11.10;99.90;;;;;;4942489;28;20035;-73
2022/11/02 01:09:59;;;;;;;11.20;2.10;;;11.10;99.90;;;;;;4959855;28;20086;-73
2022/11/02 01:12:25;;;;;;;10.13;1.60;;;11.10;99.90;;;;;;4959554;28;20035;-72
2022/11/02 01:14:51;;;;;;;11.27;2.05;;;11.10;99.90;;;;;;4959429;28;20114;-73
2022/11/02 01:17:18;;;;;;;13.80;1.98;;;11.10;99.90;;;;;;4959449;28;20032;-73
2022/11/02 01:19:43;;;;;;;11.52;2.38;;;11.10;99.90;;;;;;4959389;28;20113;-72
2022/11/02 01:22:09;;;;;;;15.15;2.10;;;11.10;99.90;;;;;;4959527;28;20062;-72
2022/11/02 01:24:35;;;;;;;14.00;1.92;;;11.10;99.90;;;;;;4959621;28;20063;-73
2022/11/02 01:27:01;;;;;;;11.88;1.70;;;11.10;99.90;;;;;;4942168;28;20038;-72
2022/11/02 01:29:26;;;;;;;14.80;2.10;;;11.10;99.90;;;;;;4941797;29;20027;-73
2022/11/02 01:31:52;;;;;;;10.55;2.03;;;11.10;99.90;;;;;;4941769;28;20023;-72
2022/11/02 01:34:19;;;;;;;9.85;1.73;;;11.10;99.90;;;;;;4959427;28;20030;-73
2022/11/02 01:36:48;;;;;;;15.15;2.17;;;11.00;99.90;;;;;;4959193;28;20035;-73
2022/11/02 01:39:14;;;;;;;9.60;2.10;;;11.00;99.90;;;;;;4944596;29;20023;-73
2022/11/02 01:41:40;;;;;;;9.52;1.73;;;11.00;99.90;;;;;;4958948;28;20027;-73
2022/11/02 01:44:25;;;;;;;8.77;1.58;;;11.00;99.90;;;;;;4941780;29;20023;-73
2022/11/02 01:46:54;;;;;;;7.93;1.75;;;11.10;99.90;;;;;;4941830;29;20031;-73
2022/11/02 01:49:21;;;;;;;15.75;1.83;;;11.10;99.90;;;;;;4959161;28;20023;-74
2022/11/02 01:52:13;;;;;;;9.55;2.10;;;11.10;99.90;;;;;;4958481;28;20034;-73
2022/11/02 01:54:44;;;;;;;10.25;1.77;;;11.00;99.90;;;;;;4958851;28;20023;-73
2022/11/02 01:57:13;;;;;;;12.35;1.88;;;11.00;99.90;;;;;;4959243;28;20031;-73
2022/11/02 01:59:49;;;;;;;11.98;1.73;;;11.10;99.90;;;;;;4962203;28;20026;-73
2022/11/02 02:02:20;;;;;;;8.50;1.83;;;11.00;99.90;;;;;;4966703;28;20054;-73
2022/11/02 02:04:50;;;;;;;9.00;1.50;;;11.00;99.90;;;;;;4959021;28;20369;-73
2022/11/02 02:07:16;;;;;;;9.43;1.92;;;11.00;99.90;;;;;;4958677;28;20038;-73
2022/11/02 02:09:42;;;;;;;9.88;1.75;;;11.00;99.90;;;;;;4959175;28;20468;-72
2022/11/02 02:12:08;;;;;;;8.38;1.83;;;11.00;99.90;;;;;;4958883;28;20034;-72
2022/11/02 02:14:34;;;;;;;11.52;1.95;;;11.00;99.90;;;;;;4958976;28;20484;-73
2022/11/02 02:17:17;;;;;;;10.73;1.65;;;11.00;99.90;;;;;;4958377;28;20020;-73
2022/11/02 02:20:15;;;;;;;14.23;2.03;;;11.00;99.90;;;;;;4958902;28;20047;-73
2022/11/02 02:22:44;;;;;;;10.15;1.85;;;10.90;99.90;;;;;;4941412;29;20503;-72
2022/11/02 02:25:35;;;;;;;9.13;1.77;;;10.90;99.90;;;;;;4959087;28;20063;-73
2022/11/02 02:28:07;;;;;;;10.15;1.80;;;10.90;99.90;;;;;;4958867;28;20037;-73
2022/11/02 02:30:42;;;;;;;12.00;1.73;;;11.00;99.90;;;;;;4958242;28;20106;-73
2022/11/02 02:33:19;;;;;;;11.68;2.15;;;10.90;99.90;;;;;;4941653;29;20027;-73
2022/11/02 02:35:59;;;;;;;8.77;1.73;;;11.00;99.90;;;;;;4941611;29;20038;-72
2022/11/02 02:38:25;;;;;;;8.73;1.75;;;10.90;99.90;;;;;;4942180;28;20019;-73
2022/11/02 02:41:02;;;;;;;8.15;1.63;;;10.90;99.90;;;;;;4922558;29;20560;-73
2022/11/02 02:43:36;;;;;;;9.15;1.77;;;10.90;99.90;;;;;;4939599;29;20110;-73
2022/11/02 02:46:12;;;;;;;14.65;1.90;;;10.90;99.90;;;;;;4939317;29;20032;-73
2022/11/02 02:48:40;;;;;;;10.48;1.77;;;10.90;99.90;;;;;;4928534;29;20127;-73
2022/11/02 02:51:11;;;;;;;14.70;1.90;;;10.90;99.90;;;;;;4958501;28;20027;-73
2022/11/02 02:53:45;;;;;;;13.38;1.83;;;11.00;99.90;;;;;;4943597;29;20027;-73
2022/11/02 02:56:14;;;;;;;9.73;1.80;;;11.00;99.90;;;;;;4962159;28;20019;-73
2022/11/02 02:59:04;;;;;;;8.60;1.80;;;11.00;99.90;;;;;;4962216;28;20047;-73
2022/11/02 03:01:31;;;;;;;9.55;1.50;;;11.10;99.90;;;;;;4961836;28;20028;-73
2022/11/02 03:03:56;;;;;;;11.20;1.40;;;11.10;99.90;;;;;;4944795;29;20032;-73
2022/11/02 03:06:31;;;;;;;9.25;1.73;;;11.00;99.90;;;;;;4961892;28;20083;-73
2022/11/02 03:09:09;;;;;;;10.20;1.83;;;11.00;99.90;;;;;;4961908;28;20123;-73
2022/11/02 03:11:47;;;;;;;10.30;1.85;;;11.00;99.90;;;;;;4944547;29;20054;-73
2022/11/02 03:14:32;;;;;;;6.90;1.52;;;11.00;99.90;;;;;;4944303;29;20289;-73
2022/11/02 03:17:30;;;;;;;10.25;1.60;;;11.00;99.90;;;;;;4944403;29;20059;-73
2022/11/02 03:19:59;;;;;;;11.23;2.10;;;11.00;99.90;;;;;;4944453;29;20039;-73
2022/11/02 03:22:33;;;;;;;9.73;2.10;;;11.00;99.90;;;;;;4961401;28;20024;-73
2022/11/02 03:25:20;;;;;;;8.57;1.42;;;10.90;99.90;;;;;;4944370;29;20031;-73
2022/11/02 03:28:04;;;;;;;11.82;1.70;;;10.90;99.90;;;;;;4961766;28;20035;-73
2022/11/02 03:30:38;;;;;;;10.02;1.75;;;10.90;99.90;;;;;;4943756;29;20031;-73
2022/11/02 03:33:08;;;;;;;9.68;1.65;;;10.90;99.90;;;;;;4961691;28;20031;-73
2022/11/02 03:35:48;;;;;;;11.45;1.60;;;10.80;99.90;;;;;;4944178;29;20113;-73
2022/11/02 03:38:23;;;;;;;4.68;1.50;;;10.80;99.90;;;;;;4964964;28;20114;-73
2022/11/02 03:40:53;;;;;;;6.60;1.25;;;10.80;99.90;;;;;;4944209;29;20023;-73
2022/11/02 03:43:20;;;;;;;6.55;1.30;;;10.80;99.90;;;;;;4961492;28;20078;-72
2022/11/02 03:45:54;;;;;;;9.27;1.67;;;10.80;99.90;;;;;;4961042;28;20412;-73
2022/11/02 03:48:22;;;;;;;5.20;1.02;;;10.70;99.90;;;;;;4943941;29;20382;-72
2022/11/02 03:50:52;;;;;;;6.55;1.60;;;10.70;99.90;;;;;;4961313;28;20031;-72
2022/11/02 03:53:25;;;;;;;9.48;1.48;;;10.70;99.90;;;;;;4960958;28;20019;-72
2022/11/02 03:55:56;;;;;;;10.48;1.70;;;10.70;99.90;;;;;;4961081;28;20046;-72
2022/11/02 03:58:21;;;;;;;6.45;1.45;;;10.60;99.90;;;;;;4961337;28;20059;-73
2022/11/02 04:00:53;;;;;;;6.90;1.25;;;10.60;99.90;;;;;;4960792;28;20055;-72
2022/11/02 04:03:21;;;;;;;7.35;1.52;;;10.60;99.90;;;;;;4960679;28;20062;-72
2022/11/02 04:05:47;;;;;;;7.00;1.35;;;10.50;99.90;;;;;;4960891;28;20444;-72
2022/11/02 04:08:19;;;;;;;8.07;1.42;;;10.50;99.90;;;;;;4961092;28;20075;-72
2022/11/02 04:16:15;;;;;;;7.10;1.10;;;10.50;99.90;;;;;;4960077;28;20030;-72
2022/11/02 04:21:25;;;;;;;7.13;1.23;;;10.50;99.90;;;;;;4960718;29;20089;-72
2022/11/02 04:26:35;;;;;;;9.20;1.33;;;10.50;99.90;;;;;;4960963;28;20054;-72
2022/11/02 04:29:01;;;;;;;8.93;1.60;;;10.40;99.90;;;;;;4960093;28;20512;-72
2022/11/02 04:31:27;;;;;;;6.43;1.35;;;10.40;99.90;;;;;;4960251;28;20042;-72
2022/11/02 04:33:52;;;;;;;10.13;1.27;;;10.30;99.90;;;;;;4960310;28;20034;-72
2022/11/02 04:36:18;;;;;;;4.25;1.33;;;10.30;99.90;;;;;;4943036;29;20090;-72
2022/11/02 04:38:44;;;;;;;8.77;1.35;;;10.20;99.90;;;;;;4963279;28;20472;-72
2022/11/02 04:44:01;;;;;;;5.75;1.15;;;10.30;99.90;;;;;;4960292;28;20037;-72
2022/11/02 04:46:29;;;;;;;4.22;0.93;;;10.30;99.90;;;;;;4959855;28;20031;-72
2022/11/02 04:48:55;;;;;;;6.03;1.13;;;10.30;99.90;;;;;;4942923;29;20035;-72
2022/11/02 04:51:23;;;;;;;5.13;1.00;;;10.20;99.90;;;;;;4959921;28;20042;-72
2022/11/02 04:53:50;;;;;;;5.68;1.00;;;10.20;99.90;;;;;;4959880;29;20023;-72
2022/11/02 04:56:16;;;;;;;4.63;1.23;;;10.20;99.90;;;;;;4942742;28;20042;-72
2022/11/02 04:58:41;;;;;;;7.38;1.02;;;10.20;99.90;;;;;;4942487;29;20027;-72
2022/11/02 05:01:11;;;;;;;8.15;1.30;;;10.20;99.90;;;;;;4942273;28;20050;-72
2022/11/02 05:03:36;;;;;;;9.70;1.50;;;10.20;99.90;;;;;;4959974;28;20054;-72
2022/11/02 05:06:02;;;;;;;5.55;1.08;;;10.20;99.90;;;;;;4959864;28;20031;-72
2022/11/02 05:08:28;;;;;;;6.22;0.95;;;10.20;99.90;;;;;;4959532;28;20035;-72
2022/11/02 05:10:58;;;;;;;6.22;1.20;;;10.20;99.90;;;;;;4942163;28;20429;-72
2022/11/02 05:13:25;;;;;;;9.50;1.40;;;10.20;99.90;;;;;;4959544;28;20098;-72
2022/11/02 05:15:54;;;;;;;5.28;1.10;;;10.20;99.90;;;;;;4958725;28;20408;-72
2022/11/02 05:18:19;;;;;;;5.53;1.00;;;10.20;99.90;;;;;;4959375;28;20571;-72
2022/11/02 05:20:53;;;;;;;6.78;0.98;;;10.20;99.90;;;;;;4959510;28;20067;-72
2022/11/02 05:23:20;;;;;;;5.03;0.90;;;10.10;99.90;;;;;;4942368;29;20062;-73
2022/11/02 05:25:59;;;;;;;4.63;1.15;;;10.10;99.90;;;;;;4959122;28;20031;-72
2022/11/02 05:28:26;;;;;;;4.25;0.95;;;10.10;99.90;;;;;;4959560;28;20023;-73
2022/11/02 05:30:52;;;;;;;5.07;1.30;;;10.00;99.90;;;;;;4959162;28;20059;-73
2022/11/02 05:33:18;;;;;;;8.45;1.20;;;10.00;99.90;;;;;;4959404;28;20508;-72
2022/11/02 05:35:44;;;;;;;5.60;1.00;;;10.00;99.90;;;;;;4942260;29;20023;-73
2022/11/02 05:38:10;;;;;;;6.47;1.40;;;10.00;99.90;;;;;;4962280;28;20103;-72
2022/11/02 05:40:39;;;;;;;3.92;1.05;;;9.90;99.90;;;;;;4959071;28;20042;-73
2022/11/02 05:43:07;;;;;;;7.70;1.33;;;9.90;99.90;;;;;;4959374;28;20400;-73
2022/11/02 05:45:33;;;;;;;5.45;0.93;;;10.00;99.90;;;;;;4959089;28;20051;-72
2022/11/02 05:48:00;;;;;;;4.95;0.80;;;10.00;99.90;;;;;;4941644;28;20038;-72
2022/11/02 05:50:26;;;;;;;4.35;1.20;;;10.00;99.90;;;;;;4964688;28;20092;-72
2022/11/02 05:52:52;;;;;;;7.85;1.20;;;10.00;99.90;;;;;;4952131;28;20023;-72
2022/11/02 05:55:18;;;;;;;4.97;1.15;;;10.00;99.90;;;;;;4959241;28;20397;-72
2022/11/02 05:57:49;;;;;;;7.28;1.25;;;10.00;99.90;;;;;;4959103;28;20027;-72
2022/11/02 06:00:14;;;;;;;5.45;1.00;;;10.00;99.90;;;;;;4958961;28;20484;-72
2022/11/02 06:02:40;;;;;;;7.80;0.98;;;9.90;99.90;;;;;;4958969;28;20082;-72
2022/11/02 06:05:06;;;;;;;4.20;0.98;;;9.90;99.90;;;;;;4959084;28;20046;-72
2022/11/02 06:07:32;;;;;;;6.50;1.00;;;9.80;99.90;;;;;;4959097;28;20027;-72
2022/11/02 06:09:57;;;;;;;4.75;0.90;;;9.80;99.90;;;;;;4958960;28;20555;-72
2022/11/02 06:12:23;;;;;;;8.45;1.30;;;9.80;99.90;;;;;;4958955;28;20535;-73
2022/11/02 06:14:48;;;;;;;5.35;0.95;;;9.80;99.90;;;;;;4941538;29;20456;-73
2022/11/02 06:17:14;;;;;;;4.55;1.00;;;9.80;99.90;;;;;;4958647;28;20027;-72
2022/11/02 06:19:40;;;;;;;5.43;1.00;;;9.80;99.90;;;;;;4958569;28;20051;-73
2022/11/02 06:22:05;;;;;;;8.25;1.10;;;9.90;99.90;;;;;;4958944;28;20069;-72
2022/11/02 06:24:31;;;;;;;6.47;1.40;;;9.80;99.90;;;;;;4958923;28;20396;-72
2022/11/02 06:26:56;;;;;;;4.50;0.90;;;9.80;99.90;;;;;;4960227;28;20035;-73
2022/11/02 06:29:22;;;;;;;5.00;0.90;;;9.80;99.90;;;;;;4962476;28;20086;-73
2022/11/02 06:31:48;;;;;;;3.30;0.80;;;9.80;99.90;;;;;;4962728;28;20034;-72
2022/11/02 06:34:13;;;;;;;5.00;0.88;;;9.80;99.90;;;;;;4962628;28;20029;-72
2022/11/02 06:36:39;;;;;;;8.10;1.00;;;9.80;99.90;;;;;;4945360;28;20020;-72
2022/11/02 06:39:04;;;;;;;6.10;1.20;;;9.80;99.90;;;;;;4966608;28;20369;-72
2022/11/02 06:41:30;;;;;;;13.32;1.45;;;9.90;99.90;;;;;;4962415;28;20027;-72
2022/11/02 06:43:56;;;;;;;5.30;1.30;;;9.90;99.90;;;;;;4932176;29;20083;-73
2022/11/02 06:46:21;;;;;;;6.25;1.58;;;9.80;99.90;;;;;;4961793;28;20373;-73
2022/11/02 06:48:47;;;;;;;3.85;1.13;;;9.80;99.90;;;;;;4962296;28;20035;-72
2022/11/02 06:51:13;;;;;;;3.90;1.00;;;9.80;99.90;;;;;;4962095;28;20023;-73
2022/11/02 06:53:38;;;;;;;7.50;1.27;;;9.80;99.90;;;;;;4962086;28;20023;-73
2022/11/02 06:56:05;;;;;;;4.82;0.80;;;9.80;99.90;;;;;;4944590;28;20090;-72
2022/11/02 06:58:30;;;;;;;7.57;1.20;;;9.80;99.90;;;;;;4962228;28;20027;-72
2022/11/02 07:00:58;;;;;;;5.15;1.10;;;9.80;99.90;;;;;;4962502;28;20038;-73
2022/11/02 07:03:24;;;;;;;4.07;0.88;;;9.80;99.90;;;;;;4950343;29;20031;-73
2022/11/02 07:05:51;;;;;;;6.32;1.20;;;9.80;99.90;;;;;;4961625;28;20029;-72
2022/11/02 07:08:17;;;;;;;6.18;1.10;;;9.80;99.90;;;;;;4944751;29;20070;-72
2022/11/02 07:10:43;;;;;;;6.07;1.25;;;9.80;99.90;;;;;;4961758;28;20122;-73
2022/11/02 07:13:09;;;;;;;5.53;1.25;;;9.70;99.90;;;;;;4961480;28;20051;-73
2022/11/02 07:15:34;;;;;;;5.25;1.08;;;9.70;99.90;;;;;;4961359;28;20030;-73
2022/11/02 07:18:00;;;;;;;3.47;1.00;;;9.70;99.90;;;;;;4943983;28;20089;-72
2022/11/02 07:20:26;;;;;;;6.18;1.42;;;9.70;99.90;;;;;;4960582;28;20023;-72
2022/11/02 07:23:00;;;;;;;3.38;1.00;;;9.70;99.90;;;;;;4961322;28;20033;-72
2022/11/02 07:25:29;;;;;;;9.63;1.40;;;9.70;99.90;;;;;;4961039;28;20429;-72
2022/11/02 07:27:56;;;;;;;6.97;1.38;;;9.80;99.90;;;;;;4944130;29;20038;-72
2022/11/02 07:30:21;;;;;;;7.07;1.40;;;9.80;99.90;;;;;;4943497;28;20388;-71
2022/11/02 07:32:47;;;;;;;7.80;1.92;;;9.80;99.90;;;;;;4944311;29;20070;-71
2022/11/02 07:35:14;;;;;;;8.15;1.65;;;9.90;99.90;;;;;;4961536;28;20042;-71
2022/11/02 07:37:40;;;;;;;7.18;1.50;;;9.90;99.90;;;;;;4943912;28;20078;-72
2022/11/02 07:40:08;;;;;;;8.93;1.65;;;10.00;99.90;;;;;;4964320;28;20031;-73
2022/11/02 07:42:33;;;;;;;7.88;1.48;;;10.00;99.90;;;;;;4943882;29;20575;-71
2022/11/02 07:44:59;;;;;;;5.05;1.30;;;10.00;99.90;;;;;;4960980;28;20027;-71
2022/11/02 07:47:25;;;;;;;5.30;1.45;;;10.00;99.90;;;;;;4961108;28;20034;-72
2022/11/02 07:49:51;;;;;;;6.25;1.48;;;10.10;99.90;;;;;;4961078;28;20027;-72
2022/11/02 07:52:16;;;;;;;5.07;1.35;;;10.10;99.90;;;;;;4943498;29;20027;-72
2022/11/02 07:54:42;;;;;;;8.35;1.80;;;10.20;99.90;;;;;;4943897;29;20027;-72
2022/11/02 07:57:07;;;;;;;9.75;1.83;;;10.20;99.90;;;;;;4961030;28;20464;-72
2022/11/02 07:59:35;;;;;;;8.75;2.08;;;10.20;99.90;;;;;;4943378;28;20058;-73
2022/11/02 08:02:01;;;;;;;8.73;1.63;;;10.30;99.90;;;;;;4943867;29;20074;-72
2022/11/02 08:04:26;;;;;;;8.65;1.65;;;10.30;99.90;;;;;;4960607;28;20020;-70
2022/11/02 08:06:52;;;;;;;10.15;1.75;;;10.30;99.90;;;;;;4960908;28;20409;-71
2022/11/02 08:09:18;;;;;;;6.15;1.50;;;10.30;99.90;;;;;;4943457;28;20027;-70
2022/11/02 08:11:44;;;;;;;9.77;1.77;;;10.40;99.90;;;;;;4965737;28;20032;-70
2022/11/02 08:14:09;;;;;;;11.20;1.85;;;10.40;99.90;;;;;;4933608;28;20115;-70
2022/11/02 08:16:35;;;;;;;9.18;1.70;;;10.50;99.90;;;;;;4950238;28;20027;-70
2022/11/02 08:19:01;;;;;;;10.52;1.95;;;10.50;99.90;;;;;;4943179;28;20055;-72
2022/11/02 08:21:27;;;;;;;8.40;1.48;;;10.60;99.90;;;;;;4955941;28;20039;-72
2022/11/02 08:23:54;;;;;;;11.27;1.73;;;10.60;99.90;;;;;;4944874;29;20107;-75
2022/11/02 08:26:20;;;;;;;7.07;1.38;;;10.60;99.90;;;;;;4924465;29;20122;-72
2022/11/02 08:28:46;;;;;;;11.38;2.03;;;10.70;99.90;;;;;;4955712;28;20042;-72
2022/11/02 08:31:15;;;;;;;13.40;2.08;;;10.70;99.90;;;;;;4942503;29;20024;-72
2022/11/02 08:33:44;;;;;;;7.45;1.85;;;10.80;99.90;;;;;;4959909;28;20023;-72
2022/11/02 08:36:11;;;;;;;12.68;2.15;;;10.80;99.90;;;;;;4960216;28;20480;-72
2022/11/02 08:38:38;;;;;;;13.60;2.05;;;10.80;99.90;;;;;;4945809;29;20019;-72
2022/11/02 08:41:04;;;;;;;13.13;2.10;;;10.90;99.90;;;;;;4958742;28;20031;-72
2022/11/02 08:43:29;;;;;;;12.43;1.92;;;10.90;99.90;;;;;;4959167;28;20026;-72
2022/11/02 08:45:58;;;;;;;12.00;1.67;;;11.00;99.90;;;;;;4959664;28;20086;-72
2022/11/02 08:48:25;;;;;;;11.32;2.00;;;11.00;99.90;;;;;;4942237;29;20028;-72
2022/11/02 08:50:50;;;;;;;10.70;1.60;;;11.10;99.90;;;;;;4957910;28;20028;-72
2022/11/02 08:53:16;;;;;;;7.82;2.05;;;11.10;99.90;;;;;;4942626;29;20484;-72
2022/11/02 08:55:42;;;;;;;9.55;1.98;;;11.10;99.90;;;;;;4959850;28;20027;-70
2022/11/02 08:58:08;;;;;;;10.27;1.85;;;11.20;99.90;;;;;;4942294;29;20027;-71
2022/11/02 09:00:34;;;;;;;11.93;2.15;;;11.20;99.90;;;;;;4941846;29;20032;-71
2022/11/02 09:03:27;;;;;;;13.18;1.98;;;11.20;99.90;;;;;;4959226;28;20031;-72
2022/11/02 09:05:57;;;;;;;8.45;1.70;;;11.30;99.90;;;;;;4956704;28;20043;-71
2022/11/02 09:08:23;;;;;;;14.27;2.28;;;11.40;99.90;;;;;;4959623;28;20055;-71
2022/11/02 09:10:51;;;;;;;10.77;2.00;;;11.40;99.90;;;;;;4941865;28;20118;-71
2022/11/02 09:13:19;;;;;;;12.02;2.13;;;11.40;99.90;;;;;;4958722;28;20042;-67
2022/11/02 09:15:48;;;;;;;12.80;1.75;;;11.50;99.90;;;;;;4958633;28;20667;-67
2022/11/02 09:18:14;;;;;;;10.68;2.10;;;11.50;99.90;;;;;;4958947;28;20043;-67
2022/11/02 09:20:40;;;;;;;10.27;1.92;;;11.60;99.90;;;;;;4953496;28;20032;-68
2022/11/02 09:23:05;;;;;;;11.18;1.95;;;11.70;99.90;;;;;;4947547;28;20032;-68
2022/11/02 09:25:31;;;;;;;10.95;1.90;;;11.70;99.90;;;;;;4955211;28;20049;-68
2022/11/02 09:27:57;;;;;;;8.18;1.85;;;11.80;99.90;;;;;;4958473;28;20059;-68
2022/11/02 09:30:25;;;;;;;12.40;2.65;;;11.80;99.90;;;;;;4958016;28;20118;-67
2022/11/02 09:32:58;;;;;;;14.43;2.30;;;11.90;99.90;;;;;;4957050;28;20019;-68
2022/11/02 09:35:25;;;;;;;10.48;2.30;;;11.90;99.90;;;;;;4957720;28;20070;-68
2022/11/02 09:37:51;;;;;;;12.95;2.20;;;12.00;99.90;;;;;;4939667;28;20440;-68
2022/11/02 09:40:21;;;;;;;9.68;1.88;;;12.10;99.90;;;;;;4958867;28;20078;-67
2022/11/02 09:43:05;;;;;;;13.95;1.95;;;12.10;99.90;;;;;;4953111;28;20027;-65
2022/11/02 09:45:37;;;;;;;17.13;2.42;;;12.20;99.90;;;;;;4957753;28;20488;-65
2022/11/02 09:48:35;;;;;;;12.77;2.47;;;12.30;99.90;;;;;;4958375;28;20031;-65
2022/11/02 09:51:13;;;;;;;12.95;1.95;;;12.30;99.90;;;;;;4957266;28;20023;-65
2022/11/02 09:53:44;;;;;;;13.30;2.42;;;12.40;99.90;;;;;;4940165;29;20027;-65
2022/11/02 09:56:11;;;;;;;11.43;2.15;;;12.50;99.90;;;;;;4957913;28;20473;-64
2022/11/02 09:58:38;;;;;;;11.30;2.03;;;12.50;99.90;;;;;;4957780;28;20055;-65
2022/11/02 10:01:42;;;;;;;11.50;2.00;;;12.50;99.90;;;;;;4957885;28;20055;-65
2022/11/02 10:04:31;;;;;;;11.98;1.90;;;12.60;99.90;;;;;;4927143;28;20511;-65
2022/11/02 10:07:11;;;;;;;12.40;2.13;;;12.80;99.90;;;;;;4957646;28;20035;-65
2022/11/02 10:09:55;;;;;;;9.30;1.98;;;13.00;99.90;;;;;;4958290;28;20048;-65
2022/11/02 10:13:01;;;;;;;11.07;1.90;;;13.00;99.90;;;;;;4958540;28;20110;-65
2022/11/02 10:15:36;;;;;;;13.75;2.03;;;13.20;99.90;;;;;;4957305;28;20027;-65
2022/11/02 10:18:03;;;;;;;13.10;1.95;;;13.20;99.90;;;;;;4958518;28;20064;-65
2022/11/02 10:20:51;;;;;;;12.68;1.95;;;13.20;99.90;;;;;;4940591;28;20020;-65
2022/11/02 10:23:32;;;;;;;9.80;2.20;;;13.30;99.90;;;;;;4957425;28;20484;-64
2022/11/02 10:25:59;;;;;;;12.38;2.00;;;13.30;99.90;;;;;;4958268;28;20031;-64
2022/11/02 10:28:29;;;;;;;15.45;2.42;;;13.40;99.90;;;;;;4958326;28;20098;-65
2022/11/02 10:30:54;;;;;;;9.65;1.70;;;13.50;99.90;;;;;;4957226;28;20027;-65
2022/11/02 10:33:28;;;;;;;9.70;1.92;;;13.50;99.90;;;;;;4957683;28;20027;-65
2022/11/02 10:36:20;;;;;;;10.27;1.70;;;13.50;99.90;;;;;;4958428;28;20413;-65
2022/11/02 10:39:12;;;;;;;12.20;1.90;;;13.50;99.90;;;;;;4960510;28;20023;-65
2022/11/02 10:41:52;;;;;;;11.07;2.20;;;13.60;99.90;;;;;;4935437;28;20039;-66
2022/11/02 10:44:27;;;;;;;11.20;1.73;;;13.60;99.90;;;;;;4957189;28;20047;-66
2022/11/02 10:47:09;;;;;;;11.68;1.77;;;13.70;99.90;;;;;;4940226;29;20019;-67
2022/11/02 10:50:00;;;;;;;13.13;1.75;;;13.70;99.90;;;;;;4957677;28;20407;-67
2022/11/02 10:52:41;;;;;;;14.77;2.53;;;13.70;99.90;;;;;;4954358;28;20038;-70
2022/11/02 10:55:22;;;;;;;11.00;2.05;;;13.70;99.90;;;;;;4954243;28;20104;-68
2022/11/02 10:57:48;;;;;;;8.82;1.60;;;13.80;99.90;;;;;;4957663;28;20027;-68
2022/11/02 11:00:28;;;;;;;9.45;2.00;;;13.90;99.90;;;;;;4956566;28;20164;-68
2022/11/02 11:03:14;;;;;;;11.57;2.08;;;14.00;99.90;;;;;;4957661;28;20066;-68
2022/11/02 11:05:48;;;;;;;9.90;1.75;;;14.00;99.90;;;;;;4957276;28;20058;-66
2022/11/02 11:08:41;;;;;;;12.82;1.90;;;14.00;99.90;;;;;;4957329;28;20110;-66
2022/11/02 11:11:18;;;;;;;7.40;1.97;;;14.00;99.90;;;;;;4945867;29;20082;-66
2022/11/02 11:13:54;;;;;;;9.32;1.70;;;14.00;99.90;;;;;;4939728;29;20839;-67
2022/11/02 11:16:40;;;;;;;10.00;1.83;;;14.00;99.90;;;;;;4949551;28;20071;-66
2022/11/02 11:19:23;;;;;;;12.95;2.17;;;14.00;99.90;;;;;;4961252;28;20126;-66
2022/11/02 11:21:49;;;;;;;13.43;1.92;;;14.00;99.90;;;;;;4960617;28;20019;-68
2022/11/02 11:24:36;;;;;;;10.80;1.95;;;14.10;99.90;;;;;;4943796;29;20031;-67
2022/11/02 11:27:10;;;;;;;11.38;2.10;;;14.10;99.90;;;;;;4960450;28;20019;-69
2022/11/02 11:29:38;;;;;;;15.70;2.47;;;14.10;99.90;;;;;;4960538;28;20397;-69
2022/11/02 11:32:22;;;;;;;12.05;1.75;;;14.10;99.90;;;;;;4960899;28;20574;-72
2022/11/02 11:35:01;;;;;;;10.23;2.17;;;14.20;99.90;;;;;;4961129;28;20020;-68
2022/11/02 11:37:27;;;;;;;10.05;1.95;;;14.30;99.90;;;;;;4961163;28;20022;-68
2022/11/02 11:40:00;;;;;;;10.77;1.95;;;14.40;99.90;;;;;;4964312;28;20031;-68
2022/11/02 11:42:30;;;;;;;11.05;1.73;;;14.40;99.90;;;;;;4961333;28;20122;-68
2022/11/02 11:45:17;;;;;;;11.15;1.90;;;14.50;99.90;;;;;;4960627;28;20035;-68
2022/11/02 11:47:43;;;;;;;8.93;1.80;;;14.50;99.90;;;;;;4960958;28;20032;-68
2022/11/02 11:50:14;;;;;;;10.73;1.70;;;14.60;99.90;;;;;;4960970;28;20035;-68
2022/11/02 11:52:40;;;;;;;14.15;2.05;;;14.60;99.90;;;;;;4959894;28;20087;-68
2022/11/02 11:55:26;;;;;;;11.98;1.80;;;14.70;99.90;;;;;;4948285;28;20027;-68
2022/11/02 11:58:14;;;;;;;9.82;1.60;;;14.70;99.90;;;;;;4960916;28;20019;-68
2022/11/02 12:00:39;;;;;;;6.78;1.42;;;14.80;99.90;;;;;;4960629;28;20099;-68
2022/11/02 12:03:09;;;;;;;10.23;2.10;;;14.80;99.90;;;;;;4943529;29;20027;-68
2022/11/02 12:06:16;;;;;;;10.02;1.70;;;14.90;99.90;;;;;;4960220;28;20500;-68
2022/11/02 12:09:21;;;;;;;11.35;2.28;;;15.00;99.90;;;;;;4942992;29;20457;-68
2022/11/02 12:11:55;;;;;;;7.95;1.55;;;15.00;99.90;;;;;;4962563;28;20039;-68
2022/11/02 12:14:51;;;;;;;11.18;2.10;;;15.20;99.90;;;;;;4943096;29;20117;-68
2022/11/02 12:17:41;;;;;;;11.23;1.95;;;15.30;99.90;;;;;;4943434;28;20038;-65
2022/11/02 12:20:38;;;;;;;8.05;1.50;;;15.30;99.90;;;;;;4960001;28;20047;-65
2022/11/02 12:23:25;;;;;;;9.95;1.98;;;15.30;99.90;;;;;;4959194;28;20083;-65
2022/11/02 12:26:12;;;;;;;10.85;1.73;;;15.40;99.90;;;;;;4959831;28;20086;-67
2022/11/02 12:29:06;;;;;;;9.05;1.65;;;15.50;99.90;;;;;;4942499;28;20038;-66
2022/11/02 12:31:37;;;;;;;10.95;2.13;;;15.40;99.90;;;;;;4938709;29;20382;-67
2022/11/02 12:34:19;;;;;;;10.13;1.75;;;15.30;99.60;;;;;;4960178;28;20027;-67
2022/11/02 12:37:03;;;;;;;9.23;1.75;;;15.30;99.60;;;;;;4942804;28;20150;-67
2022/11/02 12:39:47;;;;;;;9.95;1.75;;;15.20;99.90;;;;;;4961892;28;20027;-66
2022/11/02 12:42:25;;;;;;;8.77;1.90;;;15.20;99.90;;;;;;4960173;28;20031;-65
2022/11/02 12:45:18;;;;;;;6.65;1.67;;;15.20;99.70;;;;;;4959785;28;20027;-66
2022/11/02 12:47:58;;;;;;;9.87;1.77;;;15.10;99.90;;;;;;4959640;28;20449;-65
2022/11/02 12:51:13;;;;;;;9.07;1.58;;;15.00;99.90;;;;;;4962141;28;20110;-67
2022/11/02 12:53:58;;;;;;;9.48;1.65;;;14.80;99.90;;;;;;4902509;29;20076;-67
2022/11/02 12:56:41;;;;;;;9.20;2.20;;;14.70;99.90;;;;;;4899523;29;20435;-66
2022/11/02 12:59:15;;;;;;;7.43;1.80;;;14.60;99.90;;;;;;4944356;28;20496;-65
2022/11/02 13:01:42;;;;;;;9.25;1.95;;;14.50;99.90;;;;;;4947198;28;20039;-66
2022/11/02 13:04:30;;;;;;;8.60;1.92;;;14.40;99.90;;;;;;4942281;28;20117;-68
2022/11/02 13:07:18;;;;;;;9.23;1.65;;;14.40;99.90;;;;;;4958841;28;20075;-68
2022/11/02 13:10:16;;;;;;;5.20;1.27;;;14.50;99.90;;;;;;4946822;28;20468;-68
2022/11/02 13:12:43;;;;;;;7.30;1.50;;;14.50;99.90;;;;;;4958571;28;20400;-68
2022/11/02 13:15:16;;;;;;;9.80;1.30;;;14.50;99.90;;;;;;4941203;29;20456;-68
2022/11/02 13:18:17;;;;;;;4.93;1.52;;;14.50;99.90;;;;;;4923085;29;20023;-68
2022/11/02 13:20:54;;;;;;;8.85;1.23;;;14.60;99.90;;;;;;4919328;29;20062;-68